Historique des mesures à Cassis (13260), France
Quotidien Résumé Octobre 28, 2017 Unités:  Métrique    US   Métrique/US
« Précédent (Jour)
Suivant (Jour) »
Quotidien Hebdomadaire Mensuel Annuel Période au choix
  Maximum: Minimum: Moyenne:
Température: TemperatureC °C 13.4 °C 16 °C
Point de rosée: DewpointC °C 3.2 °C 5.1 °C
Humidité: Humidity % 38 % 45 %
Vitesse du vent: 0 km/h 0 km/h 19.2 km/h
Rafales: 0 km/h - -
Vent:- - SSE
Pression: PressurehPa hPa 1012.4 hPa -
Précipitations: 0.0 mm    
Historical Graphs
 
 
Mesures pour : Octobre 28, 2017
Heure Temperature Point de rosée Pression Vent Vitesse du vent Rafales Humidité Pluie (par heure) Conditions
TemperatureC °C DewpointC °C PressurehPa hPa Calm     Humidity % HourlyPrecipMM mm SoftwareType W/m2
00:11 16.9 °C 8.1 °C 1014.4 hPa NW 55.7 km/h 57.9 km/h 56 % 0.0 mm open2300-1.11 W/m2
01:11 16.9 °C 7.2 °C 1015.8 hPa WNW 37 km/h 37 km/h 53 % 0.0 mm open2300-1.11 W/m2
02:11 16.7 °C 6.8 °C 1016.5 hPa NNW 12.7 km/h 12.7 km/h 52 % 0.0 mm open2300-1.11 W/m2
03:11 15.9 °C 6.3 °C 1016.8 hPa NW 8 km/h 19.2 km/h 53 % 0.0 mm open2300-1.11 W/m2
04:11 15.4 °C 6.1 °C 1017.2 hPa NNW 6.4 km/h 7.6 km/h 54 % 0.0 mm open2300-1.11 W/m2
05:11 15.1 °C 5.8 °C 1017.5 hPa NE 5.1 km/h 6.4 km/h 54 % 0.0 mm open2300-1.11 W/m2
06:11 15.2 °C 5.4 °C 1017.8 hPa NE 4.2 km/h 9.3 km/h 52 % 0.0 mm open2300-1.11 W/m2
07:11 15.1 °C 5.1 °C 1017.5 hPa Calm   4.2 km/h 51 % 0.0 mm open2300-1.11 W/m2
08:11 15.1 °C 4.8 °C 1017.8 hPa North 7.6 km/h 13.2 km/h 50 % 0.0 mm open2300-1.11 W/m2
09:11 15.5 °C 4.8 °C 1018.2 hPa North 5.1 km/h 12.7 km/h 49 % 0.0 mm open2300-1.11 W/m2
10:11 16.9 °C 5.1 °C 1017.8 hPa North 9.8 km/h 24.8 km/h 46 % 0.0 mm open2300-1.11 W/m2
11:11 18.4 °C 5.8 °C 1017.5 hPa ENE 4.2 km/h 4.7 km/h 44 % 0.0 mm open2300-1.11 W/m2
12:11 19.6 °C 6.3 °C 1017.5 hPa NE 13.2 km/h 13.2 km/h 42 % 0.0 mm open2300-1.11 W/m2
13:11 20.4 °C 6.4 °C 1016.8 hPa WNW 14 km/h 14 km/h 40 % 0.0 mm open2300-1.11 W/m2
14:11 21.0 °C 6.9 °C 1015.8 hPa WNW 31.4 km/h 31.4 km/h 40 % 0.0 mm open2300-1.11 W/m2
16:11 19.8 °C 5.8 °C 1014.8 hPa NNW 60.8 km/h 60.8 km/h 40 % 0.0 mm open2300-1.11 W/m2
17:11 19.1 °C 4.4 °C 1013.8 hPa North 19.2 km/h 19.2 km/h 38 % 0.0 mm open2300-1.11 W/m2
18:11 17.5 °C 3.8 °C 1013.8 hPa NNE 17.9 km/h 23 km/h 40 % 0.0 mm open2300-1.11 W/m2
19:11 16.2 °C 3.2 °C 1013.4 hPa North 36.5 km/h 52.8 km/h 42 % 0.0 mm open2300-1.11 W/m2
20:11 15.4 °C 3.2 °C 1013.1 hPa NNW 19.2 km/h 29 km/h 44 % 0.0 mm open2300-1.11 W/m2
21:11 14.8 °C 3.2 °C 1013.1 hPa NW 40.7 km/h 40.7 km/h 46 % 0.0 mm open2300-1.11 W/m2
22:11 14.2 °C 4.0 °C 1013.1 hPa WNW 19.6 km/h 37 km/h 50 % 0.0 mm open2300-1.11 W/m2
23:11 13.4 °C 3.7 °C 1012.4 hPa North 29.5 km/h 53.9 km/h 52 % 0.0 mm open2300-1.11 W/m2
Observations météo à CASSIS
WU-History script by Weather Underground - 1 mb